createdAt,value
2019-05-18T00:00:07.637Z,8.31
2019-05-18T00:01:04.648Z,8.31
2019-05-18T00:02:01.599Z,8.30
2019-05-18T00:02:58.624Z,8.30
2019-05-18T00:03:55.668Z,8.26
2019-05-18T00:04:52.626Z,8.25
2019-05-18T00:05:49.637Z,8.22
2019-05-18T00:06:46.671Z,8.19
2019-05-18T00:07:43.710Z,8.18
2019-05-18T00:08:40.707Z,8.18
2019-05-18T00:09:37.705Z,8.18
2019-05-18T00:10:34.742Z,8.15
2019-05-18T00:11:31.759Z,8.11
2019-05-18T00:12:28.694Z,8.09
2019-05-18T00:13:25.732Z,8.09
2019-05-18T00:14:22.767Z,8.13
2019-05-18T00:15:19.723Z,8.11
2019-05-18T00:16:16.854Z,8.14
2019-05-18T00:17:25.097Z,8.17
2019-05-18T00:18:10.905Z,8.14
2019-05-18T00:19:07.759Z,8.14
2019-05-18T00:20:04.814Z,8.09
2019-05-18T00:21:01.826Z,8.07
2019-05-18T00:21:58.908Z,8.09
2019-05-18T00:22:55.804Z,8.09
2019-05-18T00:23:52.880Z,8.05
2019-05-18T00:24:49.896Z,8.05
2019-05-18T00:25:46.930Z,8.02
2019-05-18T00:26:43.855Z,8.02
2019-05-18T00:27:40.887Z,7.98
2019-05-18T00:28:37.930Z,7.98
2019-05-18T00:29:34.876Z,7.98
2019-05-18T00:30:31.930Z,7.98
2019-05-18T00:31:28.968Z,7.98
2019-05-18T00:32:25.978Z,7.92
2019-05-18T00:33:23.569Z,7.90
2019-05-18T00:34:19.939Z,7.90
2019-05-18T00:35:16.976Z,7.86
2019-05-18T00:36:14.026Z,7.84
2019-05-18T00:37:10.950Z,7.88
2019-05-18T00:38:07.986Z,7.88
2019-05-18T00:39:05.063Z,7.88
2019-05-18T00:40:02.067Z,7.88
2019-05-18T00:40:58.985Z,7.88
2019-05-18T00:41:56.034Z,7.90
2019-05-18T00:42:53.071Z,7.88
2019-05-18T00:43:50.058Z,7.88
2019-05-18T00:44:47.046Z,7.86
2019-05-18T00:45:44.106Z,7.86
2019-05-18T00:46:41.162Z,7.84
2019-05-18T00:47:41.713Z,7.80
2019-05-18T00:48:35.183Z,7.79
2019-05-18T00:49:32.139Z,7.77
2019-05-18T00:50:29.180Z,7.75
2019-05-18T00:51:26.118Z,7.73
2019-05-18T00:52:23.140Z,7.73
2019-05-18T00:53:20.183Z,7.69
2019-05-18T00:54:17.206Z,7.67
2019-05-18T00:55:14.150Z,7.67
2019-05-18T00:56:11.212Z,7.69
2019-05-18T00:57:08.223Z,7.67
2019-05-18T00:58:05.160Z,7.65
2019-05-18T00:59:02.219Z,7.65
2019-05-18T00:59:59.234Z,7.65
2019-05-18T01:00:56.502Z,7.65
2019-05-18T01:01:53.212Z,7.63
2019-05-18T01:02:50.253Z,7.61
2019-05-18T01:03:47.286Z,7.59
2019-05-18T01:04:44.239Z,7.57
2019-05-18T01:05:41.268Z,7.55
2019-05-18T01:06:38.307Z,7.55
2019-05-18T01:07:35.344Z,7.55
2019-05-18T01:08:32.322Z,7.52
2019-05-18T01:09:29.340Z,7.50
2019-05-18T01:10:26.448Z,7.48
2019-05-18T01:11:23.392Z,7.48
2019-05-18T01:12:20.316Z,7.48
2019-05-18T01:13:17.352Z,7.46
2019-05-18T01:14:14.389Z,7.44
2019-05-18T01:15:11.348Z,7.42
2019-05-18T01:16:08.476Z,7.38
2019-05-18T01:17:05.439Z,7.40
2019-05-18T01:18:02.613Z,7.38
2019-05-18T01:18:59.518Z,7.36
2019-05-18T01:19:56.413Z,7.34
2019-05-18T01:20:53.535Z,7.32
2019-05-18T01:21:50.497Z,7.32
2019-05-18T01:22:47.418Z,7.28
2019-05-18T01:23:44.455Z,7.28
2019-05-18T01:24:41.507Z,7.23
2019-05-18T01:25:38.559Z,7.21
2019-05-18T01:26:35.498Z,7.21
2019-05-18T01:27:32.508Z,7.19
2019-05-18T01:28:29.543Z,7.17
2019-05-18T01:29:26.484Z,7.11
2019-05-18T01:30:23.514Z,7.07
2019-05-18T01:31:20.573Z,7.07
2019-05-18T01:32:17.595Z,7.07
2019-05-18T01:33:14.568Z,7.07
2019-05-18T01:34:11.561Z,7.07
2019-05-18T01:35:08.599Z,7.07
2019-05-18T01:36:05.658Z,7.07
2019-05-18T01:37:02.595Z,7.07
2019-05-18T01:37:59.651Z,7.05
2019-05-18T01:38:56.648Z,7.05
2019-05-18T01:39:53.684Z,7.03
2019-05-18T01:40:50.641Z,7.03
2019-05-18T01:41:47.753Z,7.00
2019-05-18T01:42:44.732Z,6.98
2019-05-18T01:43:41.640Z,6.98
2019-05-18T01:44:38.667Z,6.96
2019-05-18T01:45:35.794Z,6.96
2019-05-18T01:46:32.793Z,6.92
2019-05-18T01:47:29.689Z,6.90
2019-05-18T01:48:26.714Z,6.88
2019-05-18T01:49:23.757Z,6.86
2019-05-18T01:50:20.803Z,6.82
2019-05-18T01:51:17.830Z,6.84
2019-05-18T01:52:14.786Z,6.86
2019-05-18T01:53:11.800Z,6.84
2019-05-18T01:54:08.838Z,6.80
2019-05-18T01:55:05.772Z,6.79
2019-05-18T01:56:02.817Z,6.76
2019-05-18T01:56:59.876Z,6.77
2019-05-18T01:57:56.792Z,6.76
2019-05-18T01:58:53.820Z,6.73
2019-05-18T01:59:50.857Z,6.76
2019-05-18T02:00:47.987Z,6.73
2019-05-18T02:01:44.941Z,6.73
2019-05-18T02:02:41.890Z,6.73
2019-05-18T02:03:38.903Z,6.71
2019-05-18T02:04:35.942Z,6.69
2019-05-18T02:05:32.880Z,6.67
2019-05-18T02:06:29.942Z,6.65
2019-05-18T02:07:26.967Z,6.63
2019-05-18T02:08:23.901Z,6.59
2019-05-18T02:09:20.924Z,6.59
2019-05-18T02:10:18.000Z,6.61
2019-05-18T02:11:15.002Z,6.61
2019-05-18T02:12:11.947Z,6.63
2019-05-18T02:13:08.975Z,6.61
2019-05-18T02:14:06.010Z,6.59
2019-05-18T02:15:03.086Z,6.57
2019-05-18T02:16:00.076Z,6.57
2019-05-18T02:16:57.026Z,6.55
2019-05-18T02:17:54.070Z,6.55
2019-05-18T02:18:51.096Z,6.57
2019-05-18T02:19:48.076Z,6.53
2019-05-18T02:20:45.071Z,6.55
2019-05-18T02:21:42.116Z,6.53
2019-05-18T02:22:39.063Z,6.53
2019-05-18T02:23:36.077Z,6.53
2019-05-18T02:24:33.114Z,6.52
2019-05-18T02:25:30.152Z,6.53
2019-05-18T02:26:27.178Z,6.53
2019-05-18T02:27:24.148Z,6.52
2019-05-18T02:28:21.204Z,6.48
2019-05-18T02:29:18.199Z,6.48
2019-05-18T02:30:17.571Z,6.48
2019-05-18T02:31:12.194Z,6.46
2019-05-18T02:32:09.209Z,6.48
2019-05-18T02:33:06.159Z,6.48
2019-05-18T02:34:03.191Z,6.46
2019-05-18T02:35:00.221Z,6.44
2019-05-18T02:35:57.272Z,6.42
2019-05-18T02:36:54.198Z,6.40
2019-05-18T02:37:51.358Z,6.38
2019-05-18T02:38:48.268Z,6.36
2019-05-18T02:39:45.306Z,6.36
2019-05-18T02:40:42.243Z,6.38
2019-05-18T02:41:39.293Z,6.38
2019-05-18T02:42:36.337Z,6.40
2019-05-18T02:43:33.353Z,6.38
2019-05-18T02:44:30.287Z,6.40
2019-05-18T02:45:27.370Z,6.38
2019-05-18T02:46:24.375Z,6.40
2019-05-18T02:47:21.401Z,6.40
2019-05-18T02:48:18.373Z,6.36
2019-05-18T02:49:15.374Z,6.34
2019-05-18T02:50:12.413Z,6.36
2019-05-18T02:51:11.737Z,6.38
2019-05-18T02:52:06.433Z,6.34
2019-05-18T02:53:03.446Z,6.32
2019-05-18T02:54:00.461Z,6.28
2019-05-18T02:54:57.514Z,6.28
2019-05-18T02:55:54.520Z,6.26
2019-05-18T02:56:51.469Z,6.26
2019-05-18T02:57:48.429Z,6.28
2019-05-18T02:58:45.553Z,6.28
2019-05-18T02:59:42.521Z,6.26
2019-05-18T03:00:39.530Z,6.28
2019-05-18T03:01:36.458Z,6.30
2019-05-18T03:02:33.500Z,6.30
2019-05-18T03:03:30.550Z,6.30
2019-05-18T03:04:27.564Z,6.28
2019-05-18T03:05:24.501Z,6.26
2019-05-18T03:06:21.543Z,6.26
2019-05-18T03:07:18.638Z,6.28
2019-05-18T03:08:15.635Z,6.28
2019-05-18T03:09:12.546Z,6.28
2019-05-18T03:10:09.601Z,6.30
2019-05-18T03:11:06.713Z,6.30
2019-05-18T03:12:03.659Z,6.32
2019-05-18T03:13:00.616Z,6.32
2019-05-18T03:13:57.635Z,6.34
2019-05-18T03:14:54.672Z,6.32
2019-05-18T03:15:51.610Z,6.28
2019-05-18T03:16:48.644Z,6.25
2019-05-18T03:17:45.692Z,6.21
2019-05-18T03:18:42.733Z,6.19
2019-05-18T03:19:39.693Z,6.19
2019-05-18T03:20:36.690Z,6.19
2019-05-18T03:21:33.727Z,6.19
2019-05-18T03:22:30.779Z,6.23
2019-05-18T03:23:27.793Z,6.23
2019-05-18T03:24:24.739Z,6.28
2019-05-18T03:25:21.773Z,6.28
2019-05-18T03:26:18.812Z,6.28
2019-05-18T03:27:15.765Z,6.28
2019-05-18T03:28:12.893Z,6.26
2019-05-18T03:29:09.824Z,6.26
2019-05-18T03:30:06.776Z,6.25
2019-05-18T03:31:03.796Z,6.23
2019-05-18T03:32:00.933Z,6.21
2019-05-18T03:32:57.921Z,6.21
2019-05-18T03:33:54.832Z,6.21
2019-05-18T03:34:51.858Z,6.21
2019-05-18T03:35:48.926Z,6.23
2019-05-18T03:36:45.916Z,6.23
2019-05-18T03:37:42.879Z,6.23
2019-05-18T03:38:39.906Z,6.21
2019-05-18T03:39:36.959Z,6.21
2019-05-18T03:40:33.903Z,6.23
2019-05-18T03:41:30.914Z,6.23
2019-05-18T03:42:27.963Z,6.21
2019-05-18T03:43:24.981Z,6.19
2019-05-18T03:44:21.940Z,6.21
2019-05-18T03:45:18.940Z,6.21
2019-05-18T03:46:15.985Z,6.21
2019-05-18T03:47:13.022Z,6.23
2019-05-18T03:48:10.049Z,6.23
2019-05-18T03:49:23.659Z,6.25
2019-05-18T03:50:04.032Z,6.25
2019-05-18T03:51:01.119Z,6.25
2019-05-18T03:51:58.097Z,6.26
2019-05-18T03:52:55.055Z,6.26
2019-05-18T03:53:52.081Z,6.26
2019-05-18T03:54:49.028Z,6.26
2019-05-18T03:55:46.060Z,6.26
2019-05-18T03:56:43.100Z,6.26
2019-05-18T03:57:40.135Z,6.28
2019-05-18T03:58:37.069Z,6.32
2019-05-18T03:59:34.114Z,6.42
2019-05-18T04:00:31.137Z,6.46
2019-05-18T04:01:28.180Z,6.50
2019-05-18T04:02:25.110Z,6.52
2019-05-18T04:03:22.233Z,6.53
2019-05-18T04:04:19.199Z,6.53
2019-05-18T04:05:16.224Z,6.51
2019-05-18T04:06:13.157Z,6.51
2019-05-18T04:07:10.199Z,6.48
2019-05-18T04:08:07.249Z,6.48
2019-05-18T04:09:04.173Z,6.46
2019-05-18T04:10:01.219Z,6.48
2019-05-18T04:10:58.242Z,6.48
2019-05-18T04:11:55.279Z,6.48
2019-05-18T04:12:52.229Z,6.48
2019-05-18T04:13:49.253Z,6.48
2019-05-18T04:14:46.317Z,6.48
2019-05-18T04:15:43.370Z,6.52
2019-05-18T04:16:40.264Z,6.53
2019-05-18T04:17:37.309Z,6.55
2019-05-18T04:18:34.362Z,6.57
2019-05-18T04:19:45.591Z,6.61
2019-05-18T04:20:28.311Z,6.63
2019-05-18T04:21:25.383Z,6.65
2019-05-18T04:22:22.388Z,6.65
2019-05-18T04:23:19.333Z,6.67
2019-05-18T04:24:16.359Z,6.69
2019-05-18T04:25:13.411Z,6.69
2019-05-18T04:26:10.440Z,6.73
2019-05-18T04:27:07.402Z,6.77
2019-05-18T04:28:04.420Z,6.79
2019-05-18T04:29:01.444Z,6.84
2019-05-18T04:29:58.393Z,6.84
2019-05-18T04:30:55.415Z,6.86
2019-05-18T04:31:52.453Z,6.86
2019-05-18T04:32:49.513Z,6.88
2019-05-18T04:33:46.431Z,6.92
2019-05-18T04:34:43.484Z,6.94
2019-05-18T04:35:40.513Z,6.98
2019-05-18T04:36:37.538Z,7.01
2019-05-18T04:37:34.477Z,7.01
2019-05-18T04:38:31.531Z,7.03
2019-05-18T04:39:28.547Z,7.07
2019-05-18T04:40:25.598Z,7.07
2019-05-18T04:41:22.531Z,7.09
2019-05-18T04:42:19.564Z,7.13
2019-05-18T04:43:16.595Z,7.15
2019-05-18T04:44:13.674Z,7.17
2019-05-18T04:45:10.570Z,7.21
2019-05-18T04:46:07.696Z,7.23
2019-05-18T04:47:04.688Z,7.26
2019-05-18T04:48:01.584Z,7.30
2019-05-18T04:48:58.615Z,7.32
2019-05-18T04:50:05.211Z,7.34
2019-05-18T04:50:52.717Z,7.40
2019-05-18T04:51:49.665Z,7.44
2019-05-18T04:52:46.710Z,7.46
2019-05-18T04:53:43.692Z,7.48
2019-05-18T04:54:40.737Z,7.53
2019-05-18T04:55:37.687Z,7.53
2019-05-18T04:56:34.747Z,7.55
2019-05-18T04:57:31.798Z,7.57
2019-05-18T04:58:28.694Z,7.59
2019-05-18T04:59:25.733Z,7.61
2019-05-18T05:00:22.799Z,7.63
2019-05-18T05:01:19.812Z,7.67
2019-05-18T05:02:16.730Z,7.69
2019-05-18T05:03:13.808Z,7.71
2019-05-18T05:04:10.816Z,7.77
2019-05-18T05:05:07.839Z,7.80
2019-05-18T05:06:04.795Z,7.84
2019-05-18T05:07:01.822Z,7.86
2019-05-18T05:07:58.855Z,7.96
2019-05-18T05:08:55.793Z,8.02
2019-05-18T05:09:52.825Z,8.09
2019-05-18T05:10:49.866Z,8.18
2019-05-18T05:11:46.915Z,8.25
2019-05-18T05:12:43.836Z,8.30
2019-05-18T05:13:40.875Z,8.35
2019-05-18T05:14:37.912Z,8.42
2019-05-18T05:15:34.979Z,8.48
2019-05-18T05:16:31.885Z,8.55
2019-05-18T05:17:28.926Z,8.63
2019-05-18T05:18:25.963Z,8.72
2019-05-18T05:19:22.996Z,8.81
2019-05-18T05:20:20.303Z,8.89
2019-05-18T05:21:16.984Z,8.98
2019-05-18T05:22:14.006Z,9.10
2019-05-18T05:23:10.948Z,9.21
2019-05-18T05:24:07.978Z,9.31
2019-05-18T05:25:05.024Z,9.44
2019-05-18T05:26:02.075Z,9.57
2019-05-18T05:26:58.989Z,9.69
2019-05-18T05:27:56.028Z,9.81
2019-05-18T05:28:53.066Z,9.92
2019-05-18T05:29:50.092Z,10.02
2019-05-18T05:30:47.039Z,10.10
2019-05-18T05:31:44.089Z,10.17
2019-05-18T05:32:41.119Z,10.27
2019-05-18T05:33:38.090Z,10.35
2019-05-18T05:34:35.125Z,10.43
2019-05-18T05:35:32.122Z,10.52
2019-05-18T05:36:29.177Z,10.60
2019-05-18T05:37:26.136Z,10.68
2019-05-18T05:38:23.094Z,10.75
2019-05-18T05:39:20.275Z,10.82
2019-05-18T05:40:17.225Z,10.89
2019-05-18T05:41:16.693Z,10.94
2019-05-18T05:42:11.220Z,11.02
2019-05-18T05:43:08.230Z,11.09
2019-05-18T05:44:05.159Z,11.14
2019-05-18T05:45:02.216Z,11.18
2019-05-18T05:45:59.229Z,11.23
2019-05-18T05:46:56.280Z,11.30
2019-05-18T05:47:53.199Z,11.38
2019-05-18T05:48:50.238Z,11.43
2019-05-18T05:49:47.290Z,11.51
2019-05-18T05:50:44.318Z,11.56
2019-05-18T05:51:41.263Z,11.59
2019-05-18T05:52:38.285Z,11.64
2019-05-18T05:53:35.345Z,11.69
2019-05-18T05:54:32.263Z,11.77
2019-05-18T05:55:29.318Z,11.81
2019-05-18T05:56:26.364Z,11.84
2019-05-18T05:57:23.372Z,11.88
2019-05-18T05:58:20.309Z,11.92
2019-05-18T05:59:17.344Z,11.96
2019-05-18T06:00:14.381Z,11.97
2019-05-18T06:01:11.434Z,11.97
2019-05-18T06:02:08.455Z,11.98
2019-05-18T06:03:05.393Z,11.98
2019-05-18T06:04:02.431Z,12.00
2019-05-18T06:04:59.472Z,12.01
2019-05-18T06:05:56.407Z,11.98
2019-05-18T06:06:53.388Z,11.98
2019-05-18T06:07:50.568Z,12.00
2019-05-18T06:08:47.456Z,12.02
2019-05-18T06:09:44.448Z,12.05
2019-05-18T06:10:41.492Z,12.10
2019-05-18T06:11:38.537Z,12.15
2019-05-18T06:12:35.481Z,12.21
2019-05-18T06:13:32.497Z,12.25
2019-05-18T06:14:29.533Z,12.28
2019-05-18T06:15:26.606Z,12.36
2019-05-18T06:16:23.519Z,12.47
2019-05-18T06:17:20.636Z,12.57
2019-05-18T06:18:17.621Z,12.68
2019-05-18T06:19:14.624Z,12.79
2019-05-18T06:20:11.596Z,12.88
2019-05-18T06:21:08.604Z,12.96
2019-05-18T06:22:05.636Z,13.06
2019-05-18T06:23:02.570Z,13.11
2019-05-18T06:23:59.605Z,13.21
2019-05-18T06:24:56.642Z,13.28
2019-05-18T06:25:53.688Z,13.35
2019-05-18T06:26:50.614Z,13.39
2019-05-18T06:27:47.663Z,13.47
2019-05-18T06:28:44.687Z,13.55
2019-05-18T06:29:41.723Z,13.60
2019-05-18T06:30:38.695Z,13.67
2019-05-18T06:31:35.804Z,13.72
2019-05-18T06:32:32.755Z,13.76
2019-05-18T06:33:29.684Z,13.81
2019-05-18T06:34:26.812Z,13.86
2019-05-18T06:35:23.745Z,13.90
2019-05-18T06:36:20.798Z,13.94
2019-05-18T06:37:17.716Z,13.97
2019-05-18T06:38:14.768Z,14.06
2019-05-18T06:39:11.792Z,14.18
2019-05-18T06:40:08.828Z,14.30
2019-05-18T06:41:05.767Z,14.34
2019-05-18T06:42:02.844Z,14.35
2019-05-18T06:42:59.852Z,14.36
2019-05-18T06:43:58.504Z,14.42
2019-05-18T06:44:53.812Z,14.48
2019-05-18T06:45:50.850Z,14.57
2019-05-18T06:46:47.987Z,14.68
2019-05-18T06:47:47.863Z,14.80
2019-05-18T06:48:41.872Z,14.92
2019-05-18T06:49:38.896Z,14.97
2019-05-18T06:50:35.933Z,15.10
2019-05-18T06:51:32.972Z,15.18
2019-05-18T06:52:29.922Z,15.21
2019-05-18T06:53:26.969Z,15.25
2019-05-18T06:54:23.922Z,15.32
2019-05-18T06:55:20.917Z,15.42
2019-05-18T06:56:17.992Z,15.47
2019-05-18T06:57:15.005Z,15.55
2019-05-18T06:58:11.970Z,15.56
2019-05-18T06:59:09.055Z,15.60
2019-05-18T07:00:06.005Z,15.60
2019-05-18T07:01:03.040Z,15.59
2019-05-18T07:02:00.016Z,15.56
2019-05-18T07:02:57.103Z,15.50
2019-05-18T07:03:54.064Z,15.43
2019-05-18T07:04:50.992Z,15.35
2019-05-18T07:05:48.023Z,15.27
2019-05-18T07:06:45.062Z,15.22
2019-05-18T07:07:42.111Z,15.13
2019-05-18T07:08:39.123Z,15.13
2019-05-18T07:09:36.117Z,15.09
2019-05-18T07:10:33.144Z,15.03
2019-05-18T07:11:30.146Z,15.00
2019-05-18T07:12:27.173Z,14.97
2019-05-18T07:13:24.148Z,14.89
2019-05-18T07:14:25.806Z,14.77
2019-05-18T07:15:18.095Z,14.68
2019-05-18T07:16:15.166Z,14.71
2019-05-18T07:17:12.214Z,14.73
2019-05-18T07:18:09.293Z,14.76
2019-05-18T07:19:06.276Z,14.72
2019-05-18T07:20:03.221Z,14.71
2019-05-18T07:21:00.214Z,14.75
2019-05-18T07:21:57.353Z,14.77
2019-05-18T07:22:54.278Z,14.82
2019-05-18T07:23:51.243Z,14.84
2019-05-18T07:24:48.301Z,14.80
2019-05-18T07:25:45.242Z,14.76
2019-05-18T07:26:42.233Z,14.72
2019-05-18T07:27:39.360Z,14.79
2019-05-18T07:28:36.428Z,14.85
2019-05-18T07:29:33.263Z,14.90
2019-05-18T07:30:30.383Z,14.96
2019-05-18T07:31:27.321Z,14.97
2019-05-18T07:32:24.266Z,15.15
2019-05-18T07:33:21.268Z,15.40
2019-05-18T07:34:18.419Z,15.65
2019-05-18T07:35:15.411Z,15.81
2019-05-18T07:36:12.340Z,15.82
2019-05-18T07:37:09.379Z,15.72
2019-05-18T07:38:06.377Z,15.68
2019-05-18T07:39:03.503Z,15.60
2019-05-18T07:40:00.439Z,15.50
2019-05-18T07:40:57.444Z,15.53
2019-05-18T07:41:54.484Z,15.61
2019-05-18T07:42:51.504Z,15.71
2019-05-18T07:43:48.416Z,15.81
2019-05-18T07:44:45.465Z,16.00
2019-05-18T07:45:42.509Z,16.15
2019-05-18T07:46:39.415Z,16.35
2019-05-18T07:47:36.484Z,16.44
2019-05-18T07:48:33.571Z,16.56
2019-05-18T07:49:30.645Z,16.70
2019-05-18T07:50:27.548Z,16.82
2019-05-18T07:51:36.308Z,16.96
2019-05-18T07:52:21.567Z,17.35
2019-05-18T07:53:18.669Z,17.68
2019-05-18T07:54:15.526Z,18.05
2019-05-18T07:55:12.630Z,18.56
2019-05-18T07:56:09.629Z,19.20
2019-05-18T07:57:06.556Z,19.71
2019-05-18T07:58:03.601Z,20.32
2019-05-18T07:59:00.735Z,20.65
2019-05-18T07:59:57.672Z,21.04
2019-05-18T08:00:54.652Z,20.96
2019-05-18T08:01:51.639Z,20.87
2019-05-18T08:02:48.639Z,20.95
2019-05-18T08:03:45.721Z,20.95
2019-05-18T08:04:42.699Z,21.34
2019-05-18T08:05:39.780Z,21.87
2019-05-18T08:06:36.728Z,22.45
2019-05-18T08:07:33.833Z,22.93
2019-05-18T08:08:30.659Z,22.89
2019-05-18T08:09:27.739Z,22.37
2019-05-18T08:10:24.837Z,22.12
2019-05-18T08:11:21.772Z,22.11
2019-05-18T08:12:18.811Z,22.28
2019-05-18T08:13:15.816Z,22.20
2019-05-18T08:14:12.824Z,22.31
2019-05-18T08:15:09.848Z,22.40
2019-05-18T08:16:06.770Z,22.53
2019-05-18T08:17:04.095Z,22.79
2019-05-18T08:18:00.875Z,23.15
2019-05-18T08:18:58.253Z,23.15
2019-05-18T08:19:54.907Z,23.35
2019-05-18T08:20:51.937Z,23.57
2019-05-18T08:21:53.280Z,23.88
2019-05-18T08:22:45.814Z,24.10
2019-05-18T08:23:42.899Z,24.11
2019-05-18T08:24:39.993Z,24.27
2019-05-18T08:25:36.922Z,24.42
2019-05-18T08:26:33.858Z,24.31
2019-05-18T08:27:30.902Z,24.23
2019-05-18T08:28:27.979Z,24.30
2019-05-18T08:29:24.973Z,23.92
2019-05-18T08:30:21.927Z,23.51
2019-05-18T08:31:19.035Z,23.39
2019-05-18T08:32:15.974Z,23.47
2019-05-18T08:33:13.017Z,23.19
2019-05-18T08:34:09.950Z,23.29
2019-05-18T08:35:07.005Z,23.64
2019-05-18T08:36:03.963Z,23.93
2019-05-18T08:37:01.484Z,24.12
2019-05-18T08:37:58.063Z,24.34
2019-05-18T08:38:55.040Z,24.45
2019-05-18T08:39:52.076Z,24.34
2019-05-18T08:40:49.154Z,24.62
2019-05-18T08:41:48.752Z,24.61
2019-05-18T08:42:43.080Z,24.29
2019-05-18T08:43:40.127Z,23.53
2019-05-18T08:44:37.122Z,23.17
2019-05-18T08:45:34.202Z,23.44
2019-05-18T08:46:31.144Z,23.89
2019-05-18T08:47:28.165Z,24.20
2019-05-18T08:48:25.152Z,24.70
2019-05-18T08:49:22.138Z,25.05
2019-05-18T08:50:19.273Z,25.29
2019-05-18T08:51:16.216Z,24.89
2019-05-18T08:52:13.165Z,24.21
2019-05-18T08:53:10.186Z,23.82
2019-05-18T08:54:07.225Z,23.94
2019-05-18T08:55:04.310Z,24.21
2019-05-18T08:56:01.346Z,24.26
2019-05-18T08:56:58.247Z,24.13
2019-05-18T08:57:55.273Z,24.04
2019-05-18T08:58:52.360Z,23.93
2019-05-18T08:59:49.255Z,23.93
2019-05-18T09:00:46.295Z,24.13
2019-05-18T09:01:43.334Z,24.15
2019-05-18T09:02:40.400Z,24.53
2019-05-18T09:03:37.440Z,24.89
2019-05-18T09:04:34.330Z,25.36
2019-05-18T09:05:31.414Z,25.50
2019-05-18T09:06:28.501Z,25.04
2019-05-18T09:07:25.355Z,24.93
2019-05-18T09:08:22.420Z,25.04
2019-05-18T09:09:19.525Z,24.62
2019-05-18T09:10:16.458Z,24.29
2019-05-18T09:11:13.393Z,24.05
2019-05-18T09:12:10.734Z,24.18
2019-05-18T09:13:07.462Z,24.69
2019-05-18T09:14:04.507Z,24.71
2019-05-18T09:15:01.488Z,24.42
2019-05-18T09:15:58.569Z,24.67
2019-05-18T09:16:55.532Z,25.12
2019-05-18T09:17:52.553Z,25.54
2019-05-18T09:18:49.581Z,25.86
2019-05-18T09:19:46.570Z,26.05
2019-05-18T09:20:43.612Z,25.73
2019-05-18T09:21:40.588Z,25.17
2019-05-18T09:22:37.893Z,25.04
2019-05-18T09:23:34.573Z,25.18
2019-05-18T09:24:31.656Z,24.82
2019-05-18T09:25:28.751Z,24.60
2019-05-18T09:26:25.708Z,24.31
2019-05-18T09:27:22.623Z,24.12
2019-05-18T09:28:19.751Z,23.81
2019-05-18T09:29:16.599Z,23.42
2019-05-18T09:30:13.668Z,23.69
2019-05-18T09:31:10.756Z,24.15
2019-05-18T09:32:07.802Z,24.70
2019-05-18T09:33:04.845Z,24.78
2019-05-18T09:34:01.692Z,25.05
2019-05-18T09:34:58.754Z,24.87
2019-05-18T09:35:55.895Z,24.96
2019-05-18T09:36:52.732Z,25.31
2019-05-18T09:37:49.726Z,25.53
2019-05-18T09:38:46.765Z,25.53
2019-05-18T09:39:43.814Z,25.92
2019-05-18T09:40:40.946Z,26.27
2019-05-18T09:41:37.867Z,26.02
2019-05-18T09:42:34.828Z,25.28
2019-05-18T09:43:31.842Z,24.30
2019-05-18T09:44:28.824Z,23.56
2019-05-18T09:45:25.859Z,23.25
2019-05-18T09:46:22.952Z,23.47
2019-05-18T09:47:19.986Z,23.70
2019-05-18T09:48:16.864Z,23.76
2019-05-18T09:49:13.913Z,23.54
2019-05-18T09:50:10.945Z,23.44
2019-05-18T09:51:07.861Z,23.52
2019-05-18T09:52:04.970Z,23.93
2019-05-18T09:53:02.118Z,24.35
2019-05-18T09:53:59.062Z,23.90
2019-05-18T09:54:55.984Z,23.45
2019-05-18T09:55:53.281Z,23.25
2019-05-18T09:56:51.038Z,23.40
2019-05-18T09:57:47.185Z,23.51
2019-05-18T09:58:43.962Z,23.61
2019-05-18T09:59:41.368Z,23.60
2019-05-18T10:00:39.197Z,23.79
2019-05-18T10:01:35.059Z,23.78
2019-05-18T10:02:32.078Z,23.40
2019-05-18T10:03:29.114Z,23.12
2019-05-18T10:04:26.099Z,23.44
2019-05-18T10:05:23.160Z,23.69
2019-05-18T10:06:20.123Z,23.71
2019-05-18T10:07:17.068Z,23.73
2019-05-18T10:08:14.199Z,23.87
2019-05-18T10:09:11.193Z,24.02
2019-05-18T10:10:08.125Z,24.02
2019-05-18T10:11:05.111Z,24.03
2019-05-18T10:12:02.259Z,24.11
2019-05-18T10:12:59.198Z,24.10
2019-05-18T10:13:56.272Z,24.10
2019-05-18T10:14:53.267Z,24.05
2019-05-18T10:15:50.197Z,23.70
2019-05-18T10:16:47.328Z,23.38
2019-05-18T10:17:44.175Z,23.21
2019-05-18T10:18:41.358Z,23.20
2019-05-18T10:19:38.352Z,23.20
2019-05-18T10:20:35.327Z,23.12
2019-05-18T10:21:32.219Z,23.00
2019-05-18T10:22:29.254Z,23.03
2019-05-18T10:23:26.388Z,23.21
2019-05-18T10:24:23.327Z,23.37
2019-05-18T10:25:20.315Z,23.53
2019-05-18T10:26:17.300Z,23.55
2019-05-18T10:27:14.339Z,23.63
2019-05-18T10:28:11.375Z,23.50
2019-05-18T10:29:08.313Z,23.53
2019-05-18T10:30:05.396Z,23.75
2019-05-18T10:31:02.487Z,23.69
2019-05-18T10:31:59.418Z,23.37
2019-05-18T10:32:56.470Z,23.20
2019-05-18T10:33:53.493Z,23.01
2019-05-18T10:34:50.477Z,23.09
2019-05-18T10:35:47.523Z,23.42
2019-05-18T10:36:44.502Z,23.78
2019-05-18T10:37:41.491Z,23.72
2019-05-18T10:38:38.576Z,23.53
2019-05-18T10:39:38.606Z,23.48
2019-05-18T10:40:32.503Z,23.20
2019-05-18T10:41:29.498Z,23.04
2019-05-18T10:42:26.622Z,23.13
2019-05-18T10:43:23.574Z,23.50
2019-05-18T10:44:20.547Z,23.79
2019-05-18T10:45:17.555Z,24.10
2019-05-18T10:46:14.601Z,24.36
2019-05-18T10:47:11.608Z,24.39
2019-05-18T10:48:08.531Z,23.93
2019-05-18T10:49:05.690Z,23.70
2019-05-18T10:50:02.670Z,23.75
2019-05-18T10:50:59.631Z,24.04
2019-05-18T10:51:56.647Z,24.29
2019-05-18T10:52:53.660Z,24.45
2019-05-18T10:53:50.694Z,24.51
2019-05-18T10:54:47.612Z,24.53
2019-05-18T10:55:44.688Z,24.60
2019-05-18T10:56:41.786Z,24.65
2019-05-18T10:57:39.026Z,24.64
2019-05-18T10:58:35.756Z,24.21
2019-05-18T10:59:32.736Z,23.92
2019-05-18T11:00:29.744Z,23.95
2019-05-18T11:01:26.809Z,24.18
2019-05-18T11:02:23.797Z,24.34
2019-05-18T11:03:20.746Z,24.37
2019-05-18T11:04:17.880Z,24.44
2019-05-18T11:05:14.765Z,24.45
2019-05-18T11:06:11.794Z,24.45
2019-05-18T11:07:08.898Z,24.05
2019-05-18T11:08:05.848Z,24.09
2019-05-18T11:09:02.855Z,24.30
2019-05-18T11:09:59.847Z,24.26
2019-05-18T11:10:56.884Z,24.37
2019-05-18T11:11:53.916Z,24.37
2019-05-18T11:12:50.805Z,24.17
2019-05-18T11:13:47.990Z,24.13
2019-05-18T11:14:44.927Z,24.02
2019-05-18T11:15:41.968Z,24.14
2019-05-18T11:16:38.964Z,24.21
2019-05-18T11:17:36.004Z,24.28
2019-05-18T11:18:33.039Z,24.40
2019-05-18T11:19:30.063Z,24.42
2019-05-18T11:20:26.907Z,24.25
2019-05-18T11:21:23.986Z,24.05
2019-05-18T11:22:21.071Z,24.21
2019-05-18T11:23:18.096Z,24.48
2019-05-18T11:24:15.082Z,24.60
2019-05-18T11:25:12.059Z,24.48
2019-05-18T11:26:09.074Z,24.15
2019-05-18T11:27:06.004Z,24.03
2019-05-18T11:28:03.089Z,24.09
2019-05-18T11:29:00.043Z,23.94
2019-05-18T11:29:57.202Z,23.87
2019-05-18T11:30:54.054Z,23.84
2019-05-18T11:31:51.090Z,23.68
2019-05-18T11:32:48.128Z,23.65
2019-05-18T11:33:45.428Z,23.61
2019-05-18T11:34:42.187Z,23.48
2019-05-18T11:35:39.137Z,23.54
2019-05-18T11:36:36.174Z,23.84
2019-05-18T11:37:33.086Z,24.18
2019-05-18T11:38:30.108Z,24.45
2019-05-18T11:39:27.269Z,24.14
2019-05-18T11:40:24.223Z,24.04
2019-05-18T11:41:21.126Z,24.01
2019-05-18T11:42:18.261Z,23.89
2019-05-18T11:43:15.334Z,23.84
2019-05-18T11:44:12.274Z,24.11
2019-05-18T11:45:09.256Z,24.09
2019-05-18T11:46:06.314Z,23.76
2019-05-18T11:47:03.291Z,23.67
2019-05-18T11:48:00.327Z,23.87
2019-05-18T11:48:57.303Z,24.00
2019-05-18T11:49:54.352Z,24.10
2019-05-18T11:50:51.326Z,24.15
2019-05-18T11:51:48.428Z,24.10
2019-05-18T11:52:45.259Z,23.94
2019-05-18T11:53:42.393Z,23.79
2019-05-18T11:54:39.431Z,23.96
2019-05-18T11:55:36.312Z,24.20
2019-05-18T11:56:33.355Z,24.19
2019-05-18T11:57:30.384Z,24.51
2019-05-18T11:58:27.476Z,24.55
2019-05-18T11:59:24.420Z,24.51
2019-05-18T12:00:21.477Z,24.80
2019-05-18T12:01:18.434Z,25.32
2019-05-18T12:02:15.434Z,26.12
2019-05-18T12:03:12.401Z,26.53
2019-05-18T12:04:09.495Z,26.62
2019-05-18T12:05:06.460Z,26.52
2019-05-18T12:06:03.379Z,26.15
2019-05-18T12:07:00.457Z,25.71
2019-05-18T12:07:57.500Z,25.57
2019-05-18T12:08:58.121Z,25.70
2019-05-18T12:09:51.520Z,25.52
2019-05-18T12:10:48.505Z,25.45
2019-05-18T12:11:45.543Z,25.10
2019-05-18T12:12:42.550Z,25.02
2019-05-18T12:13:39.557Z,25.11
2019-05-18T12:14:36.546Z,25.25
2019-05-18T12:15:33.633Z,25.32
2019-05-18T12:16:30.625Z,25.43
2019-05-18T12:17:27.561Z,25.29
2019-05-18T12:18:24.594Z,24.94
2019-05-18T12:19:21.685Z,24.82
2019-05-18T12:20:18.655Z,24.77
2019-05-18T12:21:15.610Z,24.67
2019-05-18T12:22:12.648Z,24.59
2019-05-18T12:23:09.743Z,24.59
2019-05-18T12:24:14.821Z,24.72